Thorp, Wisconsin
Current Conditions -  °F | °C
As of 7:55 AM on Saturday 25 Oct 2014 (Local Time) from KMDZ Reporting Station
Clear Clear  
Wind Chill: 40°   Ceiling: Unl
Heat Index: 45°   Visibility: 10mi
Dew Point: 38°   Wind: 9mph
Humidity: 77%   Direction: 280°W
Pressure: 29.89"   Gusts: NA
Location:  44.96°N, 90.8°W
Report Text: KMDZ 251255Z AUTO 28008KT 10SM CLR 07/04 A2989 RMK AO2 T00730035
Loading
Personal Weather Stations






























Interactive Weather Map
Tropical Storm Tracking
New forecast layout! Learn more

10-Day Weather Forecast

Advertisements
Track Severe Weather on mobile